Time;durP1;ratioP1;P1;durP2;ratioP2;P2;SDS_P1;SDS_P2;PMS_P1;PMS_P2;Temp;Humidity;BMP_temperature;BMP_pressure;BME280_temperature;BME280_humidity;BME280_pressure;Samples;Min_cycle;Max_cycle;Signal;HPM_P1;HPM_P2
2022/03/18 00:00:40;;;;;;;5.15;2.97;;;;;;;7.44;nan;102370.41;5005471;28;20383;-72
2022/03/18 00:03:06;;;;;;;6.78;3.45;;;;;;;7.41;nan;102378.50;5009837;28;20108;-71
2022/03/18 00:05:32;;;;;;;6.28;3.00;;;;;;;7.45;nan;102372.09;5009693;28;20114;-72
2022/03/18 00:07:57;;;;;;;5.95;3.45;;;;;;;7.45;nan;102372.09;5004753;28;20065;-71
2022/03/18 00:10:23;;;;;;;7.18;3.08;;;;;;;7.42;nan;102374.06;5009664;28;20065;-72
2022/03/18 00:12:52;;;;;;;7.50;3.40;;;;;;;7.39;nan;102371.63;5009921;28;20120;-71
2022/03/18 00:15:17;;;;;;;7.78;3.30;;;;;;;7.37;nan;102374.31;5008403;28;20084;-71
2022/03/18 00:17:43;;;;;;;6.38;3.35;;;;;;;7.34;nan;102373.63;5008099;28;20491;-72
2022/03/18 00:20:11;;;;;;;7.90;3.20;;;;;;;7.35;nan;102377.97;5007975;28;20038;-72
2022/03/18 00:22:37;;;;;;;5.35;3.03;;;;;;;7.32;nan;102380.78;5005296;28;20045;-71
2022/03/18 00:25:04;;;;;;;7.47;3.67;;;;;;;7.34;nan;102379.75;5008567;28;20034;-72
2022/03/18 00:27:29;;;;;;;8.82;3.58;;;;;;;7.32;nan;102378.16;5008572;28;20033;-72
2022/03/18 00:29:56;;;;;;;9.15;3.55;;;;;;;7.35;nan;102376.19;5004024;28;20029;-72
2022/03/18 00:32:22;;;;;;;7.63;3.42;;;;;;;7.30;nan;102378.22;5002520;28;20026;-72
2022/03/18 00:34:48;;;;;;;7.22;3.65;;;;;;;7.26;nan;102379.31;5009256;28;20066;-71
2022/03/18 00:37:13;;;;;;;9.13;4.03;;;;;;;7.31;nan;102379.91;5009528;28;20061;-71
2022/03/18 00:39:38;;;;;;;10.43;3.50;;;;;;;7.28;nan;102385.34;5010430;28;20486;-72
2022/03/18 00:42:04;;;;;;;9.60;3.85;;;;;;;7.27;nan;102385.44;5009117;28;20554;-71
2022/03/18 00:44:29;;;;;;;6.55;3.28;;;;;;;7.34;nan;102390.28;5009006;28;20037;-72
2022/03/18 00:46:55;;;;;;;6.15;3.17;;;;;;;7.32;nan;102386.06;5002820;28;20414;-72
2022/03/18 00:52:05;;;;;;;10.30;3.42;;;;;;;7.31;nan;102387.81;5009102;28;20077;-71
2022/03/18 00:54:43;;;;;;;7.15;3.78;;;;;;;7.23;nan;102396.13;5009143;28;20517;-71
2022/03/18 00:57:09;;;;;;;6.95;3.40;;;;;;;7.19;nan;102393.75;5002430;28;20476;-72
2022/03/18 00:59:34;;;;;;;6.00;3.35;;;;;;;7.18;nan;102392.91;5003384;28;20694;-72
2022/03/18 01:01:59;;;;;;;4.95;3.00;;;;;;;7.22;nan;102394.44;5008088;28;20065;-72
2022/03/18 01:04:28;;;;;;;5.72;3.00;;;;;;;7.21;nan;102394.53;5006231;28;20123;-72
2022/03/18 01:06:54;;;;;;;7.72;2.80;;;;;;;7.18;nan;102397.31;5009279;28;20167;-72
2022/03/18 01:09:21;;;;;;;5.30;2.97;;;;;;;7.16;nan;102394.78;5008885;28;20444;-72
2022/03/18 01:11:47;;;;;;;6.03;2.60;;;;;;;7.18;nan;102395.53;5009305;28;20502;-72
2022/03/18 01:14:12;;;;;;;6.00;2.75;;;;;;;7.19;nan;102396.38;5010987;28;20041;-72
2022/03/18 01:16:38;;;;;;;7.57;3.25;;;;;;;7.19;nan;102404.28;5000119;28;20045;-72
2022/03/18 01:19:04;;;;;;;7.57;3.20;;;;;;;7.17;nan;102393.81;5003140;28;20502;-72
2022/03/18 01:21:29;;;;;;;5.57;2.92;;;;;;;7.16;nan;102394.78;5004377;28;20371;-72
2022/03/18 01:23:54;;;;;;;9.30;3.35;;;;;;;7.17;nan;102398.25;5009192;28;20402;-72
2022/03/18 01:26:20;;;;;;;4.38;2.53;;;;;;;7.15;nan;102395.72;5008091;28;20109;-72
2022/03/18 01:28:45;;;;;;;6.35;2.92;;;;;;;7.17;nan;102396.44;5009079;28;20487;-72
2022/03/18 01:31:10;;;;;;;5.05;2.42;;;;;;;7.15;nan;102400.97;5011312;28;20046;-72
2022/03/18 01:33:37;;;;;;;4.82;2.20;;;;;;;7.14;nan;102401.03;5012227;28;20544;-72
2022/03/18 01:36:04;;;;;;;5.47;2.45;;;;;;;7.12;nan;102402.91;5009298;28;20046;-72
2022/03/18 01:38:29;;;;;;;4.28;2.78;;;;;;;7.09;nan;102401.28;5013414;28;20042;-71
2022/03/18 01:40:55;;;;;;;6.63;3.10;;;;;;;7.03;nan;102398.97;5008264;28;20095;-72
2022/03/18 01:43:21;;;;;;;5.63;2.70;;;;;;;7.06;nan;102400.63;5013078;28;20038;-72
2022/03/18 01:45:46;;;;;;;6.43;2.60;;;;;;;7.02;nan;102395.50;5007187;28;20038;-71
2022/03/18 01:48:12;;;;;;;5.25;2.47;;;;;;;6.97;nan;102397.53;5014308;28;20053;-71
2022/03/18 01:50:40;;;;;;;4.53;2.50;;;;;;;6.98;nan;102406.28;5006424;28;20038;-72
2022/03/18 01:53:07;;;;;;;9.10;2.90;;;;;;;6.93;nan;102408.31;5012307;28;20045;-71
2022/03/18 01:55:32;;;;;;;6.68;2.90;;;;;;;6.85;nan;102403.47;5013254;28;20066;-72
2022/03/18 01:57:57;;;;;;;7.85;2.80;;;;;;;6.83;nan;102400.06;5009241;28;20133;-72
2022/03/18 02:00:22;;;;;;;6.88;3.05;;;;;;;6.78;nan;102407.34;4999822;28;20050;-71
2022/03/18 02:02:48;;;;;;;5.57;2.97;;;;;;;6.77;nan;102406.50;5005372;28;20049;-72
2022/03/18 02:05:14;;;;;;;6.95;2.90;;;;;;;6.73;nan;102409.38;5011942;28;20038;-72
2022/03/18 02:07:39;;;;;;;7.60;2.88;;;;;;;6.73;nan;102404.13;5012352;28;20049;-72
2022/03/18 02:10:06;;;;;;;6.35;3.13;;;;;;;6.64;nan;102404.59;5004874;28;20041;-72
2022/03/18 02:12:32;;;;;;;7.80;2.90;;;;;;;6.63;nan;102402.91;5010873;28;20029;-72
2022/03/18 02:14:57;;;;;;;6.22;3.00;;;;;;;6.64;nan;102408.06;5012294;28;20499;-71
2022/03/18 02:17:23;;;;;;;5.10;2.78;;;;;;;6.55;nan;102411.16;5014838;28;20044;-71
2022/03/18 02:19:48;;;;;;;8.52;3.05;;;;;;;6.47;nan;102413.34;5012106;28;20026;-71
2022/03/18 02:22:17;;;;;;;7.88;3.30;;;;;;;6.50;nan;102406.16;5009898;28;20071;-71
2022/03/18 02:24:45;;;;;;;8.13;2.95;;;;;;;6.50;nan;102415.81;5007461;28;20049;-71
2022/03/18 02:27:11;;;;;;;10.93;3.38;;;;;;;6.53;nan;102413.03;5011459;28;20242;-71
2022/03/18 02:29:36;;;;;;;6.95;3.03;;;;;;;6.54;nan;102414.72;5007065;28;20275;-72
2022/03/18 02:32:03;;;;;;;7.25;3.33;;;;;;;6.47;nan;102408.94;5008535;28;20030;-71
2022/03/18 02:34:28;;;;;;;7.55;3.30;;;;;;;6.46;nan;102409.88;5012213;28;20518;-72
2022/03/18 02:36:54;;;;;;;10.85;3.33;;;;;;;6.40;nan;102404.94;5010158;28;20041;-72
2022/03/18 02:39:19;;;;;;;8.13;2.95;;;;;;;6.41;nan;102414.50;5003473;28;20124;-72
2022/03/18 02:41:45;;;;;;;5.38;2.60;;;;;;;6.45;nan;102413.41;5010561;28;20064;-72
2022/03/18 02:44:10;;;;;;;4.80;2.30;;;;;;;6.45;nan;102405.53;5010292;28;20273;-72
2022/03/18 02:46:36;;;;;;;6.63;2.15;;;;;;;6.42;nan;102410.13;5011404;28;20113;-72
2022/03/18 02:49:03;;;;;;;7.63;2.90;;;;;;;6.30;nan;102416.84;5014224;28;20502;-72
2022/03/18 02:51:29;;;;;;;7.85;2.80;;;;;;;6.26;nan;102407.41;5011427;28;20038;-72
2022/03/18 02:53:56;;;;;;;7.75;2.63;;;;;;;6.26;nan;102412.66;5010991;28;20084;-72
2022/03/18 02:56:22;;;;;;;4.57;2.42;;;;;;;6.24;nan;102425.00;5008004;28;20049;-72
2022/03/18 02:58:47;;;;;;;7.25;2.92;;;;;;;6.21;nan;102420.78;5001127;28;20450;-72
2022/03/18 03:01:13;;;;;;;9.23;3.30;;;;;;;6.24;nan;102419.75;5005791;28;20444;-72
2022/03/18 03:03:38;;;;;;;9.05;3.28;;;;;;;6.21;nan;102414.66;5005968;28;20068;-72
2022/03/18 03:08:47;;;;;;;6.53;3.13;;;;;;;6.21;nan;102418.13;5006251;28;20033;-72
2022/03/18 03:11:13;;;;;;;5.78;2.70;;;;;;;6.23;nan;102425.97;5008816;28;20046;-72
2022/03/18 03:13:38;;;;;;;7.78;2.75;;;;;;;6.25;nan;102426.72;5010300;28;20116;-72
2022/03/18 03:16:04;;;;;;;7.43;3.20;;;;;;;6.19;nan;102429.66;5009581;28;20135;-72
2022/03/18 03:18:29;;;;;;;5.80;2.70;;;;;;;6.22;nan;102434.75;5010735;28;20164;-73
2022/03/18 03:20:58;;;;;;;7.15;3.45;;;;;;;6.13;nan;102438.69;5010814;28;20414;-73
2022/03/18 03:23:25;;;;;;;6.53;3.20;;;;;;;6.04;nan;102433.91;5010204;28;20038;-72
2022/03/18 03:25:50;;;;;;;9.07;3.13;;;;;;;6.13;nan;102442.16;5010630;28;20030;-72
2022/03/18 03:28:19;;;;;;;8.00;3.83;;;;;;;6.18;nan;102446.34;5009816;28;20037;-72
2022/03/18 03:30:46;;;;;;;6.32;2.78;;;;;;;6.23;nan;102446.97;5010671;28;20052;-73
2022/03/18 03:33:11;;;;;;;6.25;2.83;;;;;;;6.22;nan;102450.50;5010445;28;20044;-73
2022/03/18 03:35:37;;;;;;;6.97;2.83;;;;;;;6.23;nan;102460.94;5009619;28;20494;-73
2022/03/18 03:38:04;;;;;;;7.43;2.88;;;;;;;6.24;nan;102454.75;5010332;28;20041;-73
2022/03/18 03:40:29;;;;;;;6.90;3.05;;;;;;;6.21;nan;102454.91;5009543;28;20034;-73
2022/03/18 03:42:54;;;;;;;3.95;2.47;;;;;;;6.26;nan;102466.03;5010531;28;20088;-73
2022/03/18 03:45:20;;;;;;;8.60;3.63;;;;;;;6.19;nan;102455.91;5004098;28;20362;-73
2022/03/18 03:47:46;;;;;;;7.90;3.42;;;;;;;6.25;nan;102463.50;5014015;28;20067;-72
2022/03/18 03:50:12;;;;;;;5.10;2.80;;;;;;;6.26;nan;102467.81;4993925;28;20042;-72
2022/03/18 03:52:37;;;;;;;5.10;2.10;;;;;;;6.25;nan;102474.03;5008413;28;20418;-71
2022/03/18 03:55:05;;;;;;;6.55;2.97;;;;;;;6.21;nan;102464.59;5010782;28;20034;-73
2022/03/18 03:57:30;;;;;;;5.13;2.80;;;;;;;6.17;nan;102474.38;5007140;28;20407;-71
2022/03/18 03:59:56;;;;;;;5.55;3.08;;;;;;;6.19;nan;102474.31;5010373;28;20064;-71
2022/03/18 04:02:22;;;;;;;11.05;3.78;;;;;;;6.13;nan;102483.34;5008800;28;20113;-71
2022/03/18 04:04:48;;;;;;;7.10;3.10;;;;;;;6.11;nan;102490.44;5009767;28;20045;-73
2022/03/18 04:07:16;;;;;;;8.50;3.22;;;;;;;6.11;nan;102486.03;5009658;28;20120;-71
2022/03/18 04:09:42;;;;;;;10.93;3.40;;;;;;;6.07;nan;102488.88;5010372;28;20041;-73
2022/03/18 04:12:08;;;;;;;5.95;2.80;;;;;;;6.14;nan;102488.50;5008268;28;20034;-73
2022/03/18 04:14:33;;;;;;;6.30;3.03;;;;;;;6.16;nan;102486.66;5009546;28;20490;-71
2022/03/18 04:16:58;;;;;;;7.07;2.97;;;;;;;6.11;nan;102491.28;5001813;28;20030;-71
2022/03/18 04:19:24;;;;;;;13.80;4.30;;;;;;;6.08;nan;102498.50;5008138;28;20034;-71
2022/03/18 04:21:49;;;;;;;8.43;3.05;;;;;;;6.13;nan;102497.31;5009797;28;20033;-71
2022/03/18 04:24:15;;;;;;;7.78;3.30;;;;;;;6.10;nan;102504.50;5009328;28;20032;-71
2022/03/18 04:26:40;;;;;;;9.57;3.40;;;;;;;6.13;nan;102505.22;5009763;28;20100;-72
2022/03/18 04:29:08;;;;;;;9.73;3.60;;;;;;;6.08;nan;102511.63;5009467;28;20042;-71
2022/03/18 04:31:33;;;;;;;4.47;2.58;;;;;;;6.14;nan;102511.31;5007863;28;20080;-71
2022/03/18 04:33:59;;;;;;;6.93;2.78;;;;;;;6.16;nan;102517.34;5009220;28;20434;-72
2022/03/18 04:36:24;;;;;;;7.70;3.60;;;;;;;6.12;nan;102524.50;5008226;28;20056;-71
2022/03/18 04:38:49;;;;;;;8.10;3.60;;;;;;;6.12;nan;102526.28;5014531;28;20054;-71
2022/03/18 04:41:14;;;;;;;5.78;3.40;;;;;;;6.14;nan;102529.69;5009405;28;20076;-71
2022/03/18 04:43:40;;;;;;;9.55;3.70;;;;;;;6.14;nan;102530.53;5009375;28;20145;-72
2022/03/18 04:46:05;;;;;;;8.82;4.00;;;;;;;6.13;nan;102530.63;5007563;28;20041;-72
2022/03/18 04:48:31;;;;;;;7.65;3.20;;;;;;;6.16;nan;102540.97;5008900;28;20491;-72
2022/03/18 04:50:57;;;;;;;10.45;4.03;;;;;;;6.16;nan;102541.81;5009639;28;20030;-71
2022/03/18 04:53:22;;;;;;;6.93;3.30;;;;;;;6.17;nan;102540.03;5010062;28;20037;-71
2022/03/18 04:55:47;;;;;;;8.30;3.20;;;;;;;6.20;nan;102545.19;5007639;28;20021;-71
2022/03/18 04:58:12;;;;;;;6.63;2.88;;;;;;;6.22;nan;102545.97;5005452;28;20034;-71
2022/03/18 05:00:38;;;;;;;7.05;3.33;;;;;;;6.25;nan;102558.09;5003699;28;20142;-71
2022/03/18 05:03:03;;;;;;;6.15;2.60;;;;;;;6.26;nan;102563.25;5010374;28;20042;-72
2022/03/18 05:05:28;;;;;;;8.00;3.42;;;;;;;6.18;nan;102559.31;5009140;28;20112;-72
2022/03/18 05:07:54;;;;;;;7.60;2.60;;;;;;;6.21;nan;102565.25;5006496;28;20411;-71
2022/03/18 05:10:20;;;;;;;6.50;3.42;;;;;;;6.14;nan;102576.97;5012850;28;20488;-71
2022/03/18 05:12:46;;;;;;;8.13;3.20;;;;;;;6.16;nan;102573.34;5011595;28;20108;-72
2022/03/18 05:15:12;;;;;;;9.57;3.17;;;;;;;6.22;nan;102573.97;5010947;28;20113;-71
2022/03/18 05:17:39;;;;;;;4.70;2.45;;;;;;;6.25;nan;102584.34;5012611;28;20148;-71
2022/03/18 05:20:07;;;;;;;8.57;3.13;;;;;;;6.23;nan;102586.22;5012243;28;20441;-71
2022/03/18 05:22:32;;;;;;;7.97;3.45;;;;;;;6.27;nan;102586.00;5010877;28;20124;-71
2022/03/18 05:24:58;;;;;;;6.68;3.30;;;;;;;6.28;nan;102581.56;4999383;28;20121;-71
2022/03/18 05:27:24;;;;;;;6.97;3.25;;;;;;;6.22;nan;102584.47;5005906;28;20134;-71
2022/03/18 05:29:50;;;;;;;7.32;3.25;;;;;;;6.25;nan;102593.09;5012412;28;20441;-71
2022/03/18 05:32:16;;;;;;;10.05;3.58;;;;;;;6.26;nan;102600.03;5012008;28;20121;-71
2022/03/18 05:34:42;;;;;;;7.93;3.05;;;;;;;6.31;nan;102602.44;5012115;28;20054;-71
2022/03/18 05:37:07;;;;;;;8.75;3.30;;;;;;;6.31;nan;102602.44;5008762;28;20068;-71
2022/03/18 05:39:33;;;;;;;6.97;2.75;;;;;;;6.29;nan;102599.03;5016617;28;20037;-71
2022/03/18 05:41:59;;;;;;;9.55;3.25;;;;;;;6.35;nan;102614.53;5011691;28;20034;-71
2022/03/18 05:44:24;;;;;;;6.38;2.72;;;;;;;6.34;nan;102613.66;5005400;28;20038;-71
2022/03/18 05:46:51;;;;;;;6.70;3.00;;;;;;;6.35;nan;102611.88;5012033;28;20064;-71
2022/03/18 05:49:17;;;;;;;7.03;3.05;;;;;;;6.37;nan;102616.16;5007753;28;20040;-73
2022/03/18 05:51:43;;;;;;;5.88;2.97;;;;;;;6.35;nan;102614.53;5016279;28;20104;-73
2022/03/18 05:54:08;;;;;;;9.10;3.75;;;;;;;6.32;nan;102623.41;5012054;28;20434;-73
2022/03/18 05:56:54;;;;;;;7.10;3.10;;;;;;;6.38;nan;102622.25;5011288;28;20041;-73
2022/03/18 05:59:21;;;;;;;6.53;2.95;;;;;;;6.37;nan;102617.94;5004049;28;20041;-72
2022/03/18 06:01:46;;;;;;;8.48;3.08;;;;;;;6.35;nan;102627.66;5013834;28;20034;-72
2022/03/18 06:04:14;;;;;;;10.48;3.70;;;;;;;6.24;nan;102633.41;5011527;28;20096;-73
2022/03/18 06:06:41;;;;;;;10.18;3.55;;;;;;;6.20;nan;102623.09;5009732;28;20050;-73
2022/03/18 06:11:51;;;;;;;7.18;3.00;;;;;;;6.28;nan;102634.13;5010616;28;20108;-73
2022/03/18 06:14:18;;;;;;;6.97;3.20;;;;;;;6.22;nan;102637.91;5005604;28;20072;-73
2022/03/18 06:16:48;;;;;;;9.35;3.58;;;;;;;6.29;nan;102643.69;5006719;28;20046;-73
2022/03/18 06:19:18;;;;;;;9.10;3.30;;;;;;;6.28;nan;102639.38;5007078;28;20038;-72
2022/03/18 06:21:44;;;;;;;6.95;3.35;;;;;;;6.30;nan;102635.75;5003568;28;20045;-73
2022/03/18 06:24:09;;;;;;;7.80;3.45;;;;;;;6.35;nan;102635.53;5011709;28;20407;-73
2022/03/18 06:26:35;;;;;;;7.82;3.67;;;;;;;6.32;nan;102646.19;5013133;28;20030;-73
2022/03/18 06:29:01;;;;;;;9.13;3.42;;;;;;;6.38;nan;102641.47;5010283;28;20041;-73
2022/03/18 06:31:26;;;;;;;6.95;3.05;;;;;;;6.47;nan;102645.47;5010707;28;20041;-73
2022/03/18 06:33:52;;;;;;;8.95;3.40;;;;;;;6.46;nan;102656.91;5008910;28;20479;-73
2022/03/18 06:36:18;;;;;;;10.20;3.33;;;;;;;6.53;nan;102653.06;5005906;28;20037;-72
2022/03/18 06:38:43;;;;;;;9.43;3.22;;;;;;;6.57;nan;102657.22;5010493;28;20046;-73
2022/03/18 06:41:08;;;;;;;12.07;3.83;;;;;;;6.57;nan;102665.13;5012250;28;20053;-73
2022/03/18 06:43:34;;;;;;;9.13;3.60;;;;;;;6.58;nan;102664.22;5009630;28;20033;-73
2022/03/18 06:45:59;;;;;;;10.43;3.30;;;;;;;6.64;nan;102667.47;5008785;28;20109;-73
2022/03/18 06:48:25;;;;;;;11.20;3.67;;;;;;;6.63;nan;102671.03;5013097;28;20104;-73
2022/03/18 06:50:50;;;;;;;7.90;3.33;;;;;;;6.69;nan;102674.19;5007818;28;20045;-73
2022/03/18 06:53:16;;;;;;;8.60;3.22;;;;;;;6.77;nan;102668.59;5010624;28;20124;-73
2022/03/18 06:55:41;;;;;;;8.05;3.60;;;;;;;6.89;nan;102686.41;5010710;28;20038;-73
2022/03/18 06:58:06;;;;;;;7.75;3.55;;;;;;;6.86;nan;102678.63;5010601;28;20095;-73
2022/03/18 07:00:32;;;;;;;8.05;3.58;;;;;;;7.00;nan;102688.50;5010980;28;20099;-73
2022/03/18 07:02:57;;;;;;;10.35;3.85;;;;;;;6.98;nan;102687.72;5013503;28;20056;-73
2022/03/18 07:05:23;;;;;;;10.60;3.78;;;;;;;7.04;nan;102695.31;5007850;28;20041;-73
2022/03/18 07:07:48;;;;;;;7.10;3.47;;;;;;;7.15;nan;102702.66;5009474;28;20104;-73
2022/03/18 07:10:14;;;;;;;7.65;3.50;;;;;;;7.23;nan;102697.88;5010272;28;20052;-73
2022/03/18 07:12:39;;;;;;;6.55;3.55;;;;;;;7.22;nan;102706.69;5007529;28;20030;-73
2022/03/18 07:15:06;;;;;;;8.23;3.60;;;;;;;7.22;nan;102702.31;5009334;28;20034;-73
2022/03/18 07:20:16;;;;;;;12.98;4.20;;;;;;;7.14;nan;102711.50;5004259;28;20044;-73
2022/03/18 07:22:42;;;;;;;11.48;4.97;;;;;;;7.11;nan;102719.53;5013926;28;20659;-73
2022/03/18 07:25:08;;;;;;;14.50;4.60;;;;;;;7.14;nan;102730.75;5009662;28;20034;-73
2022/03/18 07:27:34;;;;;;;7.25;3.80;;;;;;;7.20;nan;102729.63;5010238;28;20111;-73
2022/03/18 07:29:59;;;;;;;11.90;4.00;;;;;;;7.17;nan;102722.69;5010894;28;20487;-73
2022/03/18 07:32:25;;;;;;;8.05;4.00;;;;;;;7.25;nan;102727.63;5010674;28;20040;-73
2022/03/18 07:34:50;;;;;;;8.65;4.22;;;;;;;7.21;nan;102734.78;5010937;28;20105;-73
2022/03/18 07:37:15;;;;;;;9.45;4.22;;;;;;;7.40;nan;102732.09;5010323;28;20036;-73
2022/03/18 07:39:41;;;;;;;9.10;4.00;;;;;;;7.55;nan;102734.88;5009277;28;20032;-73
2022/03/18 07:42:06;;;;;;;7.97;3.80;;;;;;;7.80;nan;102732.72;5010143;28;20041;-73
2022/03/18 07:44:32;;;;;;;8.02;3.70;;;;;;;7.99;nan;102729.97;5011330;28;20064;-73
2022/03/18 07:46:57;;;;;;;8.32;4.10;;;;;;;8.10;nan;102737.28;5011294;28;20050;-73
2022/03/18 07:49:22;;;;;;;7.75;4.18;;;;;;;8.12;nan;102730.16;5015737;28;20450;-73
2022/03/18 07:51:48;;;;;;;9.50;3.80;;;;;;;8.15;nan;102735.28;5011440;28;20034;-73
2022/03/18 07:54:13;;;;;;;8.10;3.88;;;;;;;8.45;nan;102730.16;5009621;28;20080;-73
2022/03/18 07:56:39;;;;;;;6.10;3.30;;;;;;;8.71;nan;102731.34;5016191;28;20486;-73
2022/03/18 07:59:04;;;;;;;7.82;3.78;;;;;;;8.86;nan;102734.06;5010411;28;20041;-73
2022/03/18 08:01:29;;;;;;;7.93;3.58;;;;;;;8.76;nan;102732.91;5007675;28;20030;-72
2022/03/18 08:03:55;;;;;;;10.85;3.70;;;;;;;8.71;nan;102728.72;4990816;28;20034;-73
2022/03/18 08:06:21;;;;;;;8.82;3.83;;;;;;;8.81;nan;102738.75;5001531;28;20033;-72
2022/03/18 08:08:46;;;;;;;7.32;3.30;;;;;;;8.93;nan;102740.72;5010037;28;20073;-73
2022/03/18 08:11:12;;;;;;;8.73;3.30;;;;;;;8.80;nan;102731.78;5016415;28;20065;-73
2022/03/18 08:13:37;;;;;;;7.93;3.80;;;;;;;8.71;nan;102727.88;5010688;28;20030;-73
2022/03/18 08:16:03;;;;;;;8.20;3.80;;;;;;;8.61;nan;102732.81;5009376;28;20129;-72
2022/03/18 08:18:29;;;;;;;7.75;3.88;;;;;;;8.75;nan;102737.31;5008843;28;20026;-73
2022/03/18 08:20:54;;;;;;;8.07;3.45;;;;;;;8.80;nan;102734.44;5007958;28;20040;-72
2022/03/18 08:23:20;;;;;;;5.68;3.30;;;;;;;8.87;nan;102754.25;5009975;28;20120;-73
2022/03/18 08:25:45;;;;;;;5.57;3.10;;;;;;;9.09;nan;102744.19;5009503;28;20034;-73
2022/03/18 08:28:10;;;;;;;9.02;3.42;;;;;;;9.38;nan;102746.09;5009278;28;20487;-73
2022/03/18 08:30:36;;;;;;;7.55;3.40;;;;;;;9.42;nan;102747.63;5009156;28;20025;-73
2022/03/18 08:33:03;;;;;;;8.80;3.95;;;;;;;9.32;nan;102749.94;5009455;28;20126;-72
2022/03/18 08:35:28;;;;;;;7.18;3.35;;;;;;;9.22;nan;102759.31;5009568;28;20034;-73
2022/03/18 08:37:57;;;;;;;10.40;4.25;;;;;;;9.20;nan;102747.97;5008087;28;20096;-72
2022/03/18 08:40:33;;;;;;;7.13;3.20;;;;;;;9.50;nan;102746.22;5008093;28;20041;-73
2022/03/18 08:43:01;;;;;;;6.43;3.28;;;;;;;9.57;nan;102747.53;5009505;28;20041;-73
2022/03/18 08:45:27;;;;;;;7.97;3.47;;;;;;;9.48;nan;102750.72;5009474;28;20033;-72
2022/03/18 08:47:53;;;;;;;7.90;3.33;;;;;;;9.59;nan;102760.66;5012477;28;20069;-72
2022/03/18 08:50:22;;;;;;;9.13;3.50;;;;;;;9.68;nan;102759.28;5008796;28;20072;-73
2022/03/18 08:52:49;;;;;;;7.57;3.50;;;;;;;9.90;nan;102766.78;5008652;28;20130;-73
2022/03/18 08:55:15;;;;;;;6.95;3.15;;;;;;;10.04;nan;102758.03;5010465;28;20042;-72
2022/03/18 08:57:41;;;;;;;6.80;3.67;;;;;;;10.06;nan;102754.34;5009587;28;20034;-72
2022/03/18 09:00:14;;;;;;;6.90;3.45;;;;;;;10.09;nan;102759.44;5010545;28;20050;-73
2022/03/18 09:02:40;;;;;;;9.57;3.63;;;;;;;10.39;nan;102759.38;5001803;28;20108;-73
2022/03/18 09:05:10;;;;;;;9.85;3.28;;;;;;;10.52;nan;102756.78;5000108;28;20034;-73
2022/03/18 09:07:37;;;;;;;7.95;3.42;;;;;;;10.51;nan;102763.03;5009841;28;20038;-73
2022/03/18 09:10:04;;;;;;;10.00;4.20;;;;;;;10.71;nan;102767.06;5009703;28;20030;-73
2022/03/18 09:12:29;;;;;;;10.70;4.30;;;;;;;10.68;nan;102769.91;5009054;28;20129;-73
2022/03/18 09:14:54;;;;;;;8.13;3.83;;;;;;;10.71;nan;102758.28;5009526;28;20113;-73
2022/03/18 09:17:20;;;;;;;9.13;4.20;;;;;;;10.44;nan;102760.84;5009403;28;20042;-72
2022/03/18 09:19:46;;;;;;;7.40;3.88;;;;;;;10.76;nan;102751.75;5008814;28;20571;-73
2022/03/18 09:22:13;;;;;;;9.10;4.15;;;;;;;10.94;nan;102770.91;5008164;28;20034;-72
2022/03/18 09:24:38;;;;;;;10.52;4.38;;;;;;;10.94;nan;102754.13;5009355;28;20025;-73
2022/03/18 09:27:04;;;;;;;8.15;3.83;;;;;;;11.15;nan;102757.19;5010389;28;20510;-71
2022/03/18 09:29:31;;;;;;;8.15;3.88;;;;;;;11.27;nan;102753.72;5009477;28;20038;-72
2022/03/18 09:31:57;;;;;;;8.18;3.63;;;;;;;11.53;nan;102762.59;5008976;28;20062;-71
2022/03/18 09:34:25;;;;;;;9.82;4.50;;;;;;;11.26;nan;102770.59;5008000;28;20061;-73
2022/03/18 09:36:55;;;;;;;6.90;3.80;;;;;;;11.48;nan;102768.19;5016822;28;20041;-73
2022/03/18 09:39:23;;;;;;;6.10;3.20;;;;;;;12.02;nan;102769.03;5009457;28;20121;-73
2022/03/18 09:41:49;;;;;;;8.15;3.92;;;;;;;12.30;nan;102781.25;5008380;28;20120;-73
2022/03/18 09:44:14;;;;;;;9.15;3.63;;;;;;;12.88;nan;102781.53;5008983;28;20132;-73
2022/03/18 09:46:41;;;;;;;9.40;4.18;;;;;;;13.56;nan;102782.69;5009648;28;20426;-73
2022/03/18 09:49:11;;;;;;;8.90;4.15;;;;;;;14.04;nan;102785.25;5012514;28;20038;-73
2022/03/18 09:51:40;;;;;;;7.70;3.90;;;;;;;14.45;nan;102781.16;4990647;28;20062;-73
2022/03/18 09:54:06;;;;;;;7.55;3.90;;;;;;;14.74;nan;102783.31;4998234;28;20038;-71
2022/03/18 09:56:34;;;;;;;8.30;4.10;;;;;;;15.45;nan;102784.53;5012360;28;20403;-71
2022/03/18 09:58:59;;;;;;;10.02;4.55;;;;;;;15.20;nan;102780.41;5013012;28;20414;-71
2022/03/18 10:01:24;;;;;;;8.52;4.40;;;;;;;15.10;nan;102774.13;5012518;28;20034;-71
2022/03/18 10:03:50;;;;;;;7.18;4.00;;;;;;;15.60;nan;102778.91;5010753;28;20038;-71
2022/03/18 10:06:16;;;;;;;9.10;4.55;;;;;;;15.67;nan;102774.72;5012439;28;20026;-73
2022/03/18 10:08:42;;;;;;;8.50;4.28;;;;;;;15.64;nan;102777.66;4997592;28;20030;-73
2022/03/18 10:11:22;;;;;;;8.40;4.38;;;;;;;16.23;nan;102779.72;5011826;28;20030;-73
2022/03/18 10:14:02;;;;;;;11.13;4.30;;;;;;;16.23;nan;102771.72;5009775;28;20045;-71
2022/03/18 10:16:45;;;;;;;9.90;5.07;;;;;;;16.22;nan;102770.00;5009870;28;20080;-73
2022/03/18 10:19:14;;;;;;;8.07;4.38;;;;;;;16.45;nan;102777.84;5001351;28;20069;-73
2022/03/18 10:22:00;;;;;;;8.57;4.60;;;;;;;16.42;nan;102778.09;5012025;28;20490;-73
2022/03/18 10:24:28;;;;;;;8.90;4.32;;;;;;;16.16;nan;102786.56;5010435;28;20052;-71
2022/03/18 10:27:15;;;;;;;9.18;4.10;;;;;;;16.35;nan;102773.31;5011738;28;20034;-73
2022/03/18 10:29:44;;;;;;;7.82;4.10;;;;;;;17.05;nan;102775.19;5001548;28;20037;-73
2022/03/18 10:32:11;;;;;;;9.45;4.30;;;;;;;17.56;nan;102774.03;5011078;28;20036;-73
2022/03/18 10:37:23;;;;;;;6.95;3.95;;;;;;;18.32;nan;102783.84;5011167;28;20176;-74
2022/03/18 10:39:50;;;;;;;6.10;3.47;;;;;;;18.27;nan;102770.91;5011426;28;20475;-74
2022/03/18 10:42:18;;;;;;;9.45;4.60;;;;;;;18.29;nan;102776.97;5010795;28;20085;-74
2022/03/18 10:44:47;;;;;;;7.57;3.85;;;;;;;18.14;nan;102781.97;5011461;28;20030;-73
2022/03/18 10:47:23;;;;;;;8.25;4.32;;;;;;;17.15;nan;102776.88;5011038;28;20034;-73
2022/03/18 10:49:48;;;;;;;6.57;3.83;;;;;;;17.33;nan;102776.19;5025805;28;20034;-73
2022/03/18 10:52:14;;;;;;;7.50;3.78;;;;;;;17.88;nan;102781.75;5022141;28;20520;-74
2022/03/18 10:54:40;;;;;;;9.00;4.40;;;;;;;17.39;nan;102778.28;5011167;28;20029;-73
2022/03/18 10:57:05;;;;;;;8.27;4.03;;;;;;;17.53;nan;102764.47;5010618;28;20236;-73
2022/03/18 10:59:32;;;;;;;7.47;3.67;;;;;;;17.81;nan;102772.63;5011100;28;20030;-73
2022/03/18 11:02:00;;;;;;;7.07;4.00;;;;;;;18.00;nan;102767.22;5016988;28;20469;-74
2022/03/18 11:04:26;;;;;;;6.68;3.92;;;;;;;18.60;nan;102763.28;5009832;28;20041;-74
2022/03/18 11:12:27;;;;;;;6.85;3.88;;;;;;;19.01;nan;102769.09;5010250;28;20065;-73
2022/03/18 11:14:56;;;;;;;6.90;3.97;;;;;;;19.24;nan;102778.38;5011139;28;20061;-73
2022/03/18 11:17:23;;;;;;;6.22;3.60;;;;;;;19.28;nan;102771.72;5009668;28;20391;-73
2022/03/18 11:19:51;;;;;;;7.55;4.40;;;;;;;19.72;nan;102766.38;5010911;28;20570;-73
2022/03/18 11:22:16;;;;;;;7.80;3.83;;;;;;;19.85;nan;102767.78;5008753;28;20188;-73
2022/03/18 11:24:43;;;;;;;8.35;3.92;;;;;;;19.68;nan;102764.16;5010754;28;20563;-73
2022/03/18 11:27:11;;;;;;;5.38;3.30;;;;;;;19.56;nan;102755.47;5010865;28;20517;-73
2022/03/18 11:29:37;;;;;;;6.97;3.58;;;;;;;19.06;nan;102759.59;5010021;28;20490;-73
2022/03/18 11:32:15;;;;;;;5.13;3.17;;;;;;;19.49;nan;102765.16;5010590;28;20069;-73
2022/03/18 11:34:45;;;;;;;6.43;3.25;;;;;;;19.62;nan;102759.41;5011373;28;20026;-73
2022/03/18 11:37:11;;;;;;;6.50;3.20;;;;;;;18.81;nan;102753.16;5010757;28;20046;-73
2022/03/18 11:39:38;;;;;;;6.82;3.30;;;;;;;17.91;nan;102757.38;5021812;28;20144;-73
2022/03/18 11:42:09;;;;;;;6.28;3.40;;;;;;;18.15;nan;102754.19;5011400;28;20069;-73
2022/03/18 11:44:44;;;;;;;4.90;2.90;;;;;;;18.23;nan;102756.13;5017754;28;20523;-73
2022/03/18 11:47:18;;;;;;;5.55;2.85;;;;;;;18.41;nan;102753.50;5027383;28;20026;-73
2022/03/18 11:49:44;;;;;;;5.40;2.80;;;;;;;17.78;nan;102756.81;5023487;28;20090;-71
2022/03/18 11:52:09;;;;;;;5.75;2.63;;;;;;;16.85;nan;102747.56;5030258;28;20041;-71
2022/03/18 11:54:56;;;;;;;6.15;2.85;;;;;;;16.60;nan;102739.06;5017662;28;20070;-71
2022/03/18 11:57:29;;;;;;;4.68;2.20;;;;;;;16.32;nan;102738.00;5010553;28;20114;-73
2022/03/18 11:59:57;;;;;;;4.55;2.70;;;;;;;15.35;nan;102748.09;4998332;28;20125;-73
2022/03/18 12:02:42;;;;;;;6.72;2.70;;;;;;;15.49;nan;102746.00;5020465;28;20042;-73